Time;durP1;ratioP1;P1;durP2;ratioP2;P2;SDS_P1;SDS_P2;PMS_P1;PMS_P2;Temp;Humidity;BMP_temperature;BMP_pressure;BME280_temperature;BME280_humidity;BME280_pressure;Samples;Min_cycle;Max_cycle;Signal;HPM_P1;HPM_P2
2022/09/14 00:00:43;;;;;;;937.13;851.25;;;21.10;99.90;;;;;;5041898;28;20210;-78
2022/09/14 00:03:11;;;;;;;924.50;839.05;;;21.10;99.90;;;;;;5045368;28;20211;-77
2022/09/14 00:05:38;;;;;;;930.65;845.03;;;21.00;99.90;;;;;;5047835;28;20705;-76
2022/09/14 00:08:05;;;;;;;934.13;848.28;;;21.00;99.90;;;;;;5052305;28;20198;-78
2022/09/14 00:10:31;;;;;;;926.45;840.85;;;21.00;99.90;;;;;;5048160;28;20210;-76
2022/09/14 00:12:59;;;;;;;938.80;853.00;;;21.00;99.90;;;;;;5049433;28;20203;-77
2022/09/14 00:15:26;;;;;;;924.53;838.95;;;21.00;99.90;;;;;;5047375;28;20581;-76
2022/09/14 00:17:52;;;;;;;920.65;835.40;;;21.00;99.90;;;;;;5052164;28;20207;-78
2022/09/14 00:20:20;;;;;;;914.35;829.38;;;21.00;99.90;;;;;;5042925;28;20207;-76
2022/09/14 00:22:47;;;;;;;935.55;849.88;;;21.00;99.90;;;;;;5061632;28;20221;-76
2022/09/14 00:25:14;;;;;;;935.83;850.05;;;21.00;99.90;;;;;;5049973;28;20214;-76
2022/09/14 00:27:41;;;;;;;935.90;850.03;;;20.90;99.90;;;;;;5052897;28;20214;-77
2022/09/14 00:30:09;;;;;;;935.85;850.08;;;20.90;99.90;;;;;;5063906;28;20244;-76
2022/09/14 00:32:35;;;;;;;923.80;838.10;;;20.90;99.90;;;;;;5045527;28;20200;-76
2022/09/14 00:35:02;;;;;;;938.92;853.03;;;20.90;99.90;;;;;;5049484;28;20192;-76
2022/09/14 00:37:30;;;;;;;943.35;856.85;;;20.90;99.90;;;;;;5052312;28;20578;-78
2022/09/14 00:39:58;;;;;;;908.95;823.90;;;20.90;99.90;;;;;;5053446;28;20246;-76
2022/09/14 00:42:24;;;;;;;928.88;843.25;;;20.90;99.90;;;;;;5052151;28;20203;-76
2022/09/14 00:45:04;;;;;;;925.65;840.00;;;20.90;99.90;;;;;;5057347;28;20199;-76
2022/09/14 00:47:32;;;;;;;909.75;824.70;;;20.80;99.90;;;;;;5049989;28;20230;-76
2022/09/14 00:50:02;;;;;;;920.53;835.25;;;20.80;99.90;;;;;;5054156;28;20214;-77
2022/09/14 00:52:34;;;;;;;929.90;844.20;;;20.80;99.90;;;;;;5048773;28;20203;-79
2022/09/14 00:55:04;;;;;;;921.53;835.85;;;20.80;99.90;;;;;;5052073;28;20650;-76
2022/09/14 00:57:36;;;;;;;912.83;827.65;;;20.80;99.90;;;;;;5051723;28;20211;-76
2022/09/14 01:00:07;;;;;;;922.00;836.63;;;20.80;99.90;;;;;;5044184;28;20728;-78
2022/09/14 01:02:34;;;;;;;899.90;815.08;;;20.80;99.90;;;;;;5041636;28;20206;-76
2022/09/14 01:05:00;;;;;;;926.15;840.75;;;20.70;99.90;;;;;;5055013;28;20315;-76
2022/09/14 01:07:42;;;;;;;919.08;833.53;;;20.80;99.90;;;;;;5050152;28;20202;-76
2022/09/14 01:10:19;;;;;;;912.17;827.10;;;20.70;99.90;;;;;;5055657;28;20191;-76
2022/09/14 01:12:53;;;;;;;910.90;825.75;;;20.70;99.90;;;;;;5052290;28;20198;-77
2022/09/14 01:15:25;;;;;;;914.35;828.97;;;20.70;99.90;;;;;;5049222;28;20191;-77
2022/09/14 01:17:58;;;;;;;928.75;843.08;;;20.70;99.90;;;;;;5060262;28;20202;-76
2022/09/14 01:20:32;;;;;;;912.15;826.95;;;20.70;99.90;;;;;;5062043;28;20219;-76
2022/09/14 01:23:10;;;;;;;897.05;812.45;;;20.70;99.90;;;;;;5051172;28;20191;-76
2022/09/14 01:26:00;;;;;;;905.15;820.28;;;20.70;99.90;;;;;;5050064;28;20195;-76
2022/09/14 01:28:35;;;;;;;907.92;822.65;;;20.70;99.90;;;;;;5053741;28;20199;-76
2022/09/14 01:31:04;;;;;;;924.47;838.72;;;20.70;99.90;;;;;;5048139;28;20194;-76
2022/09/14 01:33:37;;;;;;;906.00;820.95;;;20.70;99.90;;;;;;5050572;28;20203;-79
2022/09/14 01:36:08;;;;;;;915.05;829.88;;;20.70;99.90;;;;;;5052770;28;20194;-76
2022/09/14 01:38:40;;;;;;;910.25;825.15;;;20.60;99.90;;;;;;5051238;28;20690;-76
2022/09/14 01:41:10;;;;;;;903.53;818.78;;;20.60;99.90;;;;;;5050724;28;20195;-76
2022/09/14 01:43:42;;;;;;;916.63;831.63;;;20.60;99.90;;;;;;5055199;28;20206;-76
2022/09/14 01:46:13;;;;;;;914.90;829.80;;;20.60;99.90;;;;;;5047471;28;20203;-76
2022/09/14 01:48:43;;;;;;;905.20;820.15;;;20.60;99.90;;;;;;5052121;28;20207;-76
2022/09/14 01:51:14;;;;;;;914.53;829.33;;;20.60;99.90;;;;;;5052327;28;20183;-76
2022/09/14 01:53:47;;;;;;;908.15;823.15;;;20.60;99.90;;;;;;5048010;28;20195;-77
2022/09/14 01:56:19;;;;;;;909.63;824.47;;;20.60;99.90;;;;;;5051747;28;20206;-76
2022/09/14 01:58:51;;;;;;;899.83;815.05;;;20.50;99.90;;;;;;5060323;28;20246;-76
2022/09/14 02:01:23;;;;;;;917.60;832.40;;;20.50;99.90;;;;;;5052050;28;20199;-76
2022/09/14 02:03:53;;;;;;;916.55;831.40;;;20.50;99.90;;;;;;5051169;28;20219;-76
2022/09/14 02:06:27;;;;;;;920.25;834.80;;;20.50;99.90;;;;;;5050575;28;20199;-76
2022/09/14 02:08:54;;;;;;;897.30;812.83;;;20.50;99.90;;;;;;5051053;28;20195;-76
2022/09/14 02:11:21;;;;;;;898.58;813.85;;;20.50;99.90;;;;;;5051908;28;20230;-77
2022/09/14 02:13:49;;;;;;;919.88;834.35;;;20.50;99.90;;;;;;5052735;28;20188;-76
2022/09/14 02:16:16;;;;;;;906.45;821.10;;;20.40;99.90;;;;;;5047533;28;20619;-76
2022/09/14 02:18:43;;;;;;;924.53;838.83;;;20.40;99.90;;;;;;5053823;28;20190;-75
2022/09/14 02:21:14;;;;;;;895.85;811.20;;;20.40;99.90;;;;;;5049561;28;20617;-76
2022/09/14 02:23:42;;;;;;;906.35;821.55;;;20.40;99.90;;;;;;5050172;28;20201;-76
2022/09/14 02:26:10;;;;;;;907.17;822.22;;;20.50;99.90;;;;;;5052208;28;20195;-76
2022/09/14 02:28:37;;;;;;;900.13;815.42;;;20.40;99.90;;;;;;5068108;28;20202;-77
2022/09/14 02:31:12;;;;;;;917.33;831.92;;;20.40;99.90;;;;;;5055627;28;20202;-79
2022/09/14 02:33:48;;;;;;;914.17;829.00;;;20.40;99.90;;;;;;5053064;28;20210;-76
2022/09/14 02:36:24;;;;;;;913.22;828.03;;;20.40;99.90;;;;;;5047458;28;20190;-76
2022/09/14 02:38:56;;;;;;;898.50;813.75;;;20.40;99.90;;;;;;5058797;28;20224;-76
2022/09/14 02:41:36;;;;;;;917.25;831.88;;;20.40;99.90;;;;;;5054367;28;20222;-78
2022/09/14 02:44:09;;;;;;;894.05;809.13;;;20.30;99.90;;;;;;5057174;28;20193;-77
2022/09/14 02:46:45;;;;;;;915.83;830.22;;;20.30;99.90;;;;;;5039900;28;20745;-77
2022/09/14 02:49:18;;;;;;;889.13;804.72;;;20.30;99.90;;;;;;5047729;28;20186;-78
2022/09/14 02:51:52;;;;;;;897.65;812.95;;;20.30;99.90;;;;;;5051018;28;20198;-78
2022/09/14 02:54:25;;;;;;;889.20;804.50;;;20.30;99.90;;;;;;5050931;28;20662;-77
2022/09/14 02:56:52;;;;;;;908.50;823.53;;;20.30;99.90;;;;;;5052016;28;20192;-78
2022/09/14 02:59:18;;;;;;;914.20;828.80;;;20.30;99.90;;;;;;5051041;28;20689;-77
2022/09/14 03:01:46;;;;;;;899.67;814.97;;;20.30;99.90;;;;;;5046610;28;20646;-75
2022/09/14 03:04:13;;;;;;;905.55;820.58;;;20.30;99.90;;;;;;5050199;28;20226;-76
2022/09/14 03:06:40;;;;;;;911.25;825.95;;;20.30;99.90;;;;;;5046648;28;20199;-77
2022/09/14 03:09:06;;;;;;;890.42;805.78;;;20.30;99.90;;;;;;5051820;28;20191;-76
2022/09/14 03:11:33;;;;;;;902.28;817.50;;;20.30;99.90;;;;;;5050712;28;20252;-78
2022/09/14 03:14:00;;;;;;;904.20;819.33;;;20.30;99.90;;;;;;5050832;28;20203;-78
2022/09/14 03:16:26;;;;;;;905.08;820.17;;;20.30;99.90;;;;;;5049527;28;20226;-77
2022/09/14 03:18:55;;;;;;;898.95;814.28;;;20.20;99.90;;;;;;5052728;28;20194;-76
2022/09/14 03:21:22;;;;;;;901.15;816.25;;;20.20;99.90;;;;;;5046945;28;20190;-76
2022/09/14 03:23:53;;;;;;;906.72;821.85;;;20.20;99.90;;;;;;5051003;28;20195;-76
2022/09/14 03:26:22;;;;;;;897.42;812.67;;;20.20;99.90;;;;;;5057169;28;20187;-76
2022/09/14 03:28:51;;;;;;;893.80;809.40;;;20.20;99.90;;;;;;5063877;28;20218;-76
2022/09/14 03:31:18;;;;;;;883.95;799.50;;;20.20;99.90;;;;;;5051517;28;20198;-76
2022/09/14 03:33:44;;;;;;;894.78;810.13;;;20.20;99.90;;;;;;5051432;28;20210;-76
2022/09/14 03:36:16;;;;;;;899.50;814.63;;;20.20;99.90;;;;;;5058463;28;20194;-76
2022/09/14 03:38:44;;;;;;;903.28;818.28;;;20.20;99.90;;;;;;5055522;28;20570;-75
2022/09/14 03:41:12;;;;;;;893.47;808.78;;;20.20;99.90;;;;;;5048366;28;20610;-76
2022/09/14 03:43:39;;;;;;;884.03;799.85;;;20.20;99.90;;;;;;5061210;28;20202;-77
2022/09/14 03:46:06;;;;;;;879.88;795.65;;;20.20;99.90;;;;;;5053000;28;20223;-76
2022/09/14 03:48:33;;;;;;;901.63;816.88;;;20.10;99.90;;;;;;5051241;28;20669;-75
2022/09/14 03:51:01;;;;;;;879.78;795.83;;;20.10;99.90;;;;;;5054874;28;20203;-77
2022/09/14 03:53:29;;;;;;;888.75;804.45;;;20.10;99.90;;;;;;5046486;28;20605;-76
2022/09/14 03:55:56;;;;;;;893.63;809.03;;;20.10;99.90;;;;;;5045625;28;20199;-76
2022/09/14 03:58:23;;;;;;;888.88;804.30;;;20.10;99.90;;;;;;5048409;28;20195;-78
2022/09/14 04:00:50;;;;;;;893.45;808.90;;;20.10;99.90;;;;;;5047054;28;20214;-76
2022/09/14 04:03:17;;;;;;;887.33;803.15;;;20.10;99.90;;;;;;5044117;28;20215;-78
2022/09/14 04:05:53;;;;;;;878.85;794.55;;;20.10;99.90;;;;;;5051310;28;20195;-76
2022/09/14 04:08:20;;;;;;;883.92;799.53;;;20.10;99.90;;;;;;5047741;28;20671;-76
2022/09/14 04:10:48;;;;;;;888.05;803.60;;;20.00;99.90;;;;;;5052645;28;20226;-78
2022/09/14 04:13:15;;;;;;;887.00;802.42;;;20.10;99.90;;;;;;5051087;28;20597;-76
2022/09/14 04:15:42;;;;;;;889.88;805.33;;;20.00;99.90;;;;;;5050828;28;20210;-76
2022/09/14 04:18:08;;;;;;;878.72;794.55;;;20.00;99.90;;;;;;5051423;28;20275;-76
2022/09/14 04:20:36;;;;;;;873.03;789.00;;;20.00;99.90;;;;;;5057019;28;20676;-76
2022/09/14 04:23:02;;;;;;;888.13;803.70;;;20.00;99.90;;;;;;5049125;28;20209;-76
2022/09/14 04:25:29;;;;;;;881.97;797.53;;;20.00;99.90;;;;;;5051187;28;20195;-76
2022/09/14 04:27:57;;;;;;;887.80;803.13;;;20.00;99.90;;;;;;5056260;28;20198;-77
2022/09/14 04:30:24;;;;;;;884.40;799.92;;;20.00;99.90;;;;;;5047745;28;20229;-76
2022/09/14 04:32:54;;;;;;;889.90;805.00;;;20.00;99.90;;;;;;5050140;28;20218;-76
2022/09/14 04:35:20;;;;;;;891.70;806.90;;;20.00;99.90;;;;;;5048543;28;20226;-76
2022/09/14 04:37:47;;;;;;;875.88;791.60;;;19.90;99.90;;;;;;5052362;28;20195;-76
2022/09/14 04:40:14;;;;;;;903.67;818.40;;;20.00;99.90;;;;;;5049138;28;21459;-76
2022/09/14 04:42:41;;;;;;;881.28;796.75;;;19.90;99.90;;;;;;5053749;28;20199;-78
2022/09/14 04:45:10;;;;;;;894.72;810.08;;;19.90;99.90;;;;;;5044963;28;20202;-78
2022/09/14 04:47:36;;;;;;;902.28;817.13;;;19.90;99.90;;;;;;5050733;28;20199;-76
2022/09/14 04:50:04;;;;;;;880.47;796.08;;;19.90;99.90;;;;;;5054773;28;20471;-76
2022/09/14 04:52:31;;;;;;;875.38;791.30;;;19.90;99.90;;;;;;5048043;28;20289;-76
2022/09/14 04:54:57;;;;;;;874.38;790.20;;;19.90;99.90;;;;;;5051013;28;20204;-75
2022/09/14 04:57:24;;;;;;;882.78;798.45;;;19.80;99.90;;;;;;5051599;28;20210;-76
2022/09/14 04:59:51;;;;;;;881.47;796.97;;;19.80;99.90;;;;;;5047646;28;20327;-79
2022/09/14 05:02:19;;;;;;;862.90;779.25;;;19.80;99.90;;;;;;5056672;28;20589;-77
2022/09/14 05:04:46;;;;;;;899.20;813.72;;;19.80;99.90;;;;;;5045910;28;20206;-78
2022/09/14 05:07:12;;;;;;;892.85;808.05;;;19.80;99.90;;;;;;5051401;28;20199;-76
2022/09/14 05:09:39;;;;;;;879.33;794.92;;;19.80;99.90;;;;;;5052351;28;20207;-76
2022/09/14 05:12:06;;;;;;;876.20;791.92;;;19.80;99.90;;;;;;5048528;28;20655;-77
2022/09/14 05:14:33;;;;;;;874.92;790.75;;;19.70;99.90;;;;;;5049523;28;20199;-76
2022/09/14 05:17:01;;;;;;;886.15;801.78;;;19.70;99.90;;;;;;5045448;28;20304;-76
2022/09/14 05:19:29;;;;;;;865.35;781.50;;;19.70;99.90;;;;;;5052038;28;20550;-78
2022/09/14 05:21:56;;;;;;;859.58;775.72;;;19.70;99.90;;;;;;5046241;28;20207;-77
2022/09/14 05:24:23;;;;;;;866.05;782.13;;;19.70;99.90;;;;;;5052842;28;20199;-76
2022/09/14 05:26:52;;;;;;;867.97;783.88;;;19.70;99.90;;;;;;5062140;28;20569;-76
2022/09/14 05:29:19;;;;;;;878.90;794.55;;;19.70;99.90;;;;;;5053171;28;20282;-76
2022/09/14 05:31:46;;;;;;;876.20;791.85;;;19.70;99.90;;;;;;5048519;28;20206;-76
2022/09/14 05:34:13;;;;;;;874.60;790.42;;;19.60;99.90;;;;;;5058650;28;20261;-76
2022/09/14 05:36:42;;;;;;;869.17;784.97;;;19.60;99.90;;;;;;5056237;28;20207;-76
2022/09/14 05:39:09;;;;;;;866.47;782.53;;;19.60;99.90;;;;;;5060267;28;20199;-78
2022/09/14 05:41:37;;;;;;;862.45;778.22;;;19.60;99.90;;;;;;5051311;28;20232;-78
2022/09/14 05:44:04;;;;;;;878.13;793.65;;;19.60;99.90;;;;;;5049565;28;20214;-76
2022/09/14 05:46:31;;;;;;;875.28;790.78;;;19.60;99.90;;;;;;5060427;28;20206;-77
2022/09/14 05:48:57;;;;;;;870.05;785.78;;;19.60;99.90;;;;;;5052899;28;20650;-77
2022/09/14 05:51:26;;;;;;;877.35;793.17;;;19.60;99.90;;;;;;5052198;28;21254;-78
2022/09/14 05:53:55;;;;;;;871.47;787.45;;;19.60;99.90;;;;;;5045877;28;20666;-78
2022/09/14 05:56:24;;;;;;;861.45;777.47;;;19.60;99.90;;;;;;5045640;28;20221;-77
2022/09/14 05:58:51;;;;;;;868.08;784.08;;;19.60;99.90;;;;;;5052066;28;20621;-77
2022/09/14 06:01:20;;;;;;;865.00;781.03;;;19.50;99.90;;;;;;5049035;28;20224;-76
2022/09/14 06:03:48;;;;;;;847.65;763.88;;;19.50;99.90;;;;;;5050025;28;20211;-77
2022/09/14 06:06:17;;;;;;;852.72;768.85;;;19.50;99.90;;;;;;5048038;28;20192;-77
2022/09/14 06:08:44;;;;;;;865.65;781.65;;;19.50;99.90;;;;;;5049516;28;20202;-78
2022/09/14 06:11:15;;;;;;;874.13;789.55;;;19.50;99.90;;;;;;5048348;28;20202;-78
2022/09/14 06:13:43;;;;;;;877.60;793.03;;;19.50;99.90;;;;;;5048710;28;20207;-77
2022/09/14 06:16:12;;;;;;;857.15;773.28;;;19.50;99.90;;;;;;5049613;28;20207;-77
2022/09/14 06:18:40;;;;;;;866.67;783.00;;;19.50;99.90;;;;;;5050533;28;20245;-78
2022/09/14 06:21:07;;;;;;;860.35;776.20;;;19.50;99.90;;;;;;5048266;28;20222;-77
2022/09/14 06:23:35;;;;;;;862.58;778.72;;;19.50;99.90;;;;;;5043858;28;20198;-79
2022/09/14 06:26:03;;;;;;;870.35;786.20;;;19.40;99.90;;;;;;5048179;28;20532;-78
2022/09/14 06:28:32;;;;;;;853.67;769.97;;;19.40;99.90;;;;;;5041527;28;20196;-77
2022/09/14 06:30:59;;;;;;;854.58;770.97;;;19.40;99.90;;;;;;5041820;28;20206;-82
2022/09/14 06:33:27;;;;;;;863.67;779.78;;;19.40;99.90;;;;;;5047939;28;20535;-79
2022/09/14 06:35:58;;;;;;;845.47;761.95;;;19.40;99.90;;;;;;5050272;28;20574;-78
2022/09/14 06:38:25;;;;;;;850.88;767.13;;;19.40;99.90;;;;;;5045366;28;20202;-80
2022/09/14 06:40:54;;;;;;;871.30;787.00;;;19.40;99.90;;;;;;5049764;28;20678;-77
2022/09/14 06:43:21;;;;;;;871.22;786.95;;;19.30;99.90;;;;;;5051123;28;20274;-77
2022/09/14 06:46:03;;;;;;;830.75;747.90;;;19.30;99.90;;;;;;5043871;28;20202;-78
2022/09/14 06:48:32;;;;;;;858.08;774.28;;;19.30;99.90;;;;;;5052372;28;20282;-79
2022/09/14 06:50:59;;;;;;;838.78;755.50;;;19.30;99.90;;;;;;5049250;28;20195;-77
2022/09/14 06:53:26;;;;;;;844.08;760.72;;;19.30;99.90;;;;;;5047801;28;20208;-79
2022/09/14 06:55:53;;;;;;;843.38;760.00;;;19.30;99.90;;;;;;5049527;28;20209;-77
2022/09/14 06:58:20;;;;;;;850.30;766.22;;;19.30;99.90;;;;;;5051243;28;20203;-79
2022/09/14 07:00:46;;;;;;;839.38;756.22;;;19.30;99.90;;;;;;5051244;28;20252;-79
2022/09/14 07:03:14;;;;;;;857.45;773.97;;;19.30;99.90;;;;;;5049744;28;20222;-78
2022/09/14 07:05:41;;;;;;;834.60;751.58;;;19.30;99.90;;;;;;5050836;28;20207;-80
2022/09/14 07:08:08;;;;;;;855.40;771.72;;;19.30;99.90;;;;;;5048444;28;20680;-79
2022/09/14 07:10:35;;;;;;;830.33;747.45;;;19.20;99.90;;;;;;5050058;28;20199;-78
2022/09/14 07:13:02;;;;;;;855.53;771.97;;;19.20;99.90;;;;;;5048323;28;20202;-78
2022/09/14 07:15:28;;;;;;;838.40;755.25;;;19.20;99.90;;;;;;5048457;28;20203;-79
2022/09/14 07:17:55;;;;;;;857.97;774.17;;;19.20;99.90;;;;;;5047238;28;20677;-78
2022/09/14 07:20:23;;;;;;;847.67;764.17;;;19.20;99.90;;;;;;5049810;28;20686;-78
2022/09/14 07:22:50;;;;;;;851.28;767.30;;;19.20;99.90;;;;;;5047881;28;20202;-78
2022/09/14 07:25:16;;;;;;;844.28;760.78;;;19.20;99.90;;;;;;5051797;28;20199;-79
2022/09/14 07:27:43;;;;;;;847.97;764.47;;;19.20;99.90;;;;;;5052214;28;20205;-78
2022/09/14 07:30:11;;;;;;;837.90;754.33;;;19.20;99.90;;;;;;5050267;28;20202;-79
2022/09/14 07:32:38;;;;;;;854.72;771.13;;;19.10;99.90;;;;;;5050107;28;20249;-79
2022/09/14 07:35:05;;;;;;;842.67;758.92;;;19.20;99.90;;;;;;5042400;28;20206;-79
2022/09/14 07:37:33;;;;;;;860.03;776.17;;;19.10;99.90;;;;;;5046824;28;20664;-79
2022/09/14 07:40:00;;;;;;;848.20;764.67;;;19.10;99.90;;;;;;5048685;28;20190;-79
2022/09/14 07:42:26;;;;;;;845.03;761.63;;;19.10;99.90;;;;;;5050012;28;20226;-80
2022/09/14 07:44:53;;;;;;;842.30;758.90;;;19.10;99.90;;;;;;5050761;28;20199;-80
2022/09/14 07:47:20;;;;;;;846.15;762.47;;;19.10;99.90;;;;;;5047281;28;20276;-80
2022/09/14 07:49:46;;;;;;;848.72;765.03;;;19.10;99.90;;;;;;5051876;28;20203;-80
2022/09/14 07:52:13;;;;;;;849.13;765.65;;;19.10;99.90;;;;;;5047149;28;20192;-80
2022/09/14 07:54:42;;;;;;;842.78;759.30;;;19.10;99.90;;;;;;5044987;28;20217;-79
2022/09/14 07:57:08;;;;;;;849.78;766.10;;;19.10;99.90;;;;;;5049499;28;20195;-81
2022/09/14 07:59:35;;;;;;;834.95;751.75;;;19.00;99.90;;;;;;5041874;28;20266;-79
2022/09/14 08:02:02;;;;;;;847.67;764.00;;;19.00;99.90;;;;;;5049087;28;20222;-79
2022/09/14 08:04:28;;;;;;;847.17;763.60;;;19.00;99.90;;;;;;5049822;28;20219;-80
2022/09/14 08:06:55;;;;;;;822.10;739.25;;;19.00;99.90;;;;;;5045538;28;20200;-78
2022/09/14 08:09:22;;;;;;;842.03;758.25;;;19.00;99.90;;;;;;5043086;28;20195;-80
2022/09/14 08:11:50;;;;;;;839.40;755.58;;;19.00;99.90;;;;;;5040976;28;20244;-79
2022/09/14 08:14:18;;;;;;;833.80;750.70;;;19.00;99.90;;;;;;5038844;28;20207;-80
2022/09/14 08:16:45;;;;;;;833.22;749.92;;;19.00;99.90;;;;;;5046819;28;20195;-79
2022/09/14 08:19:14;;;;;;;817.97;735.20;;;19.00;99.90;;;;;;5041601;28;20609;-79
2022/09/14 08:21:41;;;;;;;831.42;748.22;;;19.00;99.90;;;;;;5044259;28;20308;-80
2022/09/14 08:24:08;;;;;;;829.90;746.70;;;19.00;99.90;;;;;;5039852;28;20198;-80
2022/09/14 08:26:36;;;;;;;838.20;754.90;;;18.90;99.90;;;;;;5047171;28;20222;-79
2022/09/14 08:29:05;;;;;;;830.08;746.97;;;18.90;99.90;;;;;;5050282;28;20514;-79
2022/09/14 08:31:37;;;;;;;820.40;737.70;;;18.90;99.90;;;;;;5042950;28;20278;-79
2022/09/14 08:34:04;;;;;;;832.45;749.25;;;18.90;99.90;;;;;;5038067;28;20672;-79
2022/09/14 08:36:33;;;;;;;819.90;737.03;;;18.90;99.90;;;;;;5048682;28;20661;-80
2022/09/14 08:39:01;;;;;;;825.03;742.05;;;18.90;99.90;;;;;;5050921;28;20200;-79
2022/09/14 08:41:30;;;;;;;825.47;742.40;;;18.90;99.90;;;;;;5043209;28;20222;-80
2022/09/14 08:44:01;;;;;;;831.13;748.05;;;18.90;99.90;;;;;;5047326;28;20229;-79
2022/09/14 08:46:33;;;;;;;827.25;744.05;;;18.80;99.90;;;;;;5045076;28;20200;-79
2022/09/14 08:49:03;;;;;;;828.08;744.88;;;18.80;99.90;;;;;;5048180;28;20202;-79
2022/09/14 08:51:30;;;;;;;816.25;733.65;;;18.80;99.90;;;;;;5050856;28;20200;-79
2022/09/14 08:53:59;;;;;;;819.50;736.40;;;18.80;99.90;;;;;;5045328;28;20667;-79
2022/09/14 08:56:31;;;;;;;814.17;731.33;;;18.80;99.90;;;;;;5049050;28;20187;-78
2022/09/14 08:59:26;;;;;;;837.33;753.65;;;18.80;99.90;;;;;;5036565;28;20215;-79
2022/09/14 09:02:05;;;;;;;823.08;740.10;;;18.80;99.90;;;;;;5023181;28;20226;-80
2022/09/14 09:04:41;;;;;;;815.72;732.92;;;18.80;99.90;;;;;;5052444;28;20261;-79
2022/09/14 09:07:13;;;;;;;805.28;722.78;;;18.80;99.90;;;;;;5041836;28;20206;-79
2022/09/14 09:09:44;;;;;;;837.22;753.85;;;18.80;99.90;;;;;;5053180;28;20210;-80
2022/09/14 09:12:15;;;;;;;815.85;732.95;;;18.80;99.90;;;;;;5036541;28;20216;-79
2022/09/14 09:14:47;;;;;;;819.60;736.75;;;18.70;99.90;;;;;;5047738;28;20302;-79
2022/09/14 09:17:20;;;;;;;825.30;742.42;;;18.80;99.90;;;;;;5043285;28;20223;-78
2022/09/14 09:19:55;;;;;;;829.42;746.42;;;18.70;99.90;;;;;;5052012;28;20257;-78
2022/09/14 09:22:25;;;;;;;827.67;744.70;;;18.70;99.90;;;;;;5039387;28;20225;-80
2022/09/14 09:24:54;;;;;;;809.03;726.45;;;18.70;99.90;;;;;;5047656;28;20200;-82
2022/09/14 09:27:23;;;;;;;821.88;738.90;;;18.70;99.90;;;;;;5039348;28;20202;-79
2022/09/14 09:29:50;;;;;;;800.22;717.78;;;18.70;99.90;;;;;;5044460;28;20200;-79
2022/09/14 09:32:22;;;;;;;823.45;740.20;;;18.70;99.90;;;;;;5047889;28;20199;-80
2022/09/14 09:34:49;;;;;;;825.92;742.92;;;18.70;99.90;;;;;;5046594;28;21070;-79
2022/09/14 09:37:17;;;;;;;823.83;740.92;;;18.70;99.90;;;;;;5044735;28;20654;-79
2022/09/14 09:39:44;;;;;;;812.78;730.13;;;18.70;99.90;;;;;;5044318;28;20200;-79
2022/09/14 09:42:15;;;;;;;804.78;722.50;;;18.70;99.90;;;;;;5039115;28;20215;-79
2022/09/14 09:44:55;;;;;;;803.60;721.10;;;18.70;99.90;;;;;;5046493;28;20194;-79
2022/09/14 09:47:29;;;;;;;799.65;717.33;;;18.70;99.90;;;;;;5042470;28;20229;-79
2022/09/14 09:50:01;;;;;;;817.03;733.92;;;18.70;99.90;;;;;;5046444;28;20197;-79
2022/09/14 09:52:30;;;;;;;826.42;743.58;;;18.70;99.90;;;;;;5040744;28;20291;-80
2022/09/14 09:54:58;;;;;;;831.55;748.30;;;18.70;99.90;;;;;;5048133;28;20322;-79
2022/09/14 09:57:30;;;;;;;830.28;747.13;;;18.70;99.90;;;;;;5045475;28;20208;-79
2022/09/14 10:00:21;;;;;;;831.60;748.25;;;18.70;99.90;;;;;;5041630;28;20215;-79
2022/09/14 10:02:49;;;;;;;825.58;742.67;;;18.70;99.90;;;;;;5037919;28;20246;-79
2022/09/14 10:05:22;;;;;;;815.10;732.33;;;18.70;99.90;;;;;;5049637;28;20199;-80
2022/09/14 10:07:55;;;;;;;825.08;742.08;;;18.70;99.90;;;;;;5042354;28;20682;-80
2022/09/14 10:10:26;;;;;;;804.42;721.85;;;18.70;99.90;;;;;;5042028;28;20207;-78
2022/09/14 10:12:55;;;;;;;821.20;738.33;;;18.70;99.90;;;;;;5042238;28;20310;-78
2022/09/14 10:15:25;;;;;;;801.65;719.40;;;18.70;99.90;;;;;;5041931;28;20210;-80
2022/09/14 10:18:07;;;;;;;828.13;745.10;;;18.70;99.90;;;;;;5045673;28;20195;-78
2022/09/14 10:20:36;;;;;;;818.00;735.20;;;18.60;99.90;;;;;;5044223;28;20744;-78
2022/09/14 10:23:23;;;;;;;834.60;751.17;;;18.70;99.90;;;;;;5041724;28;20222;-79
2022/09/14 10:25:53;;;;;;;816.35;733.65;;;18.70;99.90;;;;;;5045012;28;20195;-78
2022/09/14 10:28:27;;;;;;;817.67;734.88;;;18.60;99.90;;;;;;5039719;28;20214;-78
2022/09/14 10:30:59;;;;;;;820.88;737.92;;;18.70;99.90;;;;;;5042619;28;20199;-80
2022/09/14 10:33:35;;;;;;;808.13;725.47;;;18.60;99.90;;;;;;5047078;28;20195;-78
2022/09/14 10:36:12;;;;;;;799.38;716.88;;;18.60;99.90;;;;;;5046357;28;20229;-79
2022/09/14 10:38:45;;;;;;;802.65;720.33;;;18.60;99.90;;;;;;5046375;28;20203;-79
2022/09/14 10:41:25;;;;;;;815.08;732.50;;;18.60;99.90;;;;;;5049079;28;20257;-79
2022/09/14 10:44:08;;;;;;;823.60;740.60;;;18.60;99.90;;;;;;5050563;28;20248;-79
2022/09/14 10:46:42;;;;;;;778.60;696.58;;;18.60;99.90;;;;;;5048055;28;20199;-78
2022/09/14 10:49:30;;;;;;;809.67;727.17;;;18.60;99.90;;;;;;5042728;28;20191;-78
2022/09/14 10:52:03;;;;;;;815.38;732.70;;;18.60;99.90;;;;;;5044919;28;20199;-78
2022/09/14 10:54:56;;;;;;;817.00;734.10;;;18.60;99.90;;;;;;5049710;28;20195;-79
2022/09/14 10:57:30;;;;;;;793.83;711.75;;;18.60;99.90;;;;;;5050913;28;20803;-78
2022/09/14 11:00:03;;;;;;;821.25;738.35;;;18.60;99.90;;;;;;5047731;28;20757;-79
2022/09/14 11:03:03;;;;;;;795.30;713.10;;;18.60;99.90;;;;;;5049206;28;20223;-79
2022/09/14 11:05:36;;;;;;;812.15;729.45;;;18.60;99.90;;;;;;5041480;28;20216;-79
2022/09/14 11:08:16;;;;;;;823.65;740.55;;;18.60;99.90;;;;;;5043935;28;20200;-77
2022/09/14 11:10:54;;;;;;;792.75;710.53;;;18.60;99.90;;;;;;5046421;28;20193;-78
2022/09/14 11:13:47;;;;;;;817.42;734.63;;;18.60;99.90;;;;;;5040912;28;20191;-78
2022/09/14 11:16:25;;;;;;;803.15;720.63;;;18.60;99.90;;;;;;5036833;28;20198;-77
2022/09/14 11:19:01;;;;;;;811.40;728.55;;;18.60;99.90;;;;;;5045875;28;20200;-80
2022/09/14 11:21:43;;;;;;;813.55;730.88;;;18.50;99.90;;;;;;5043390;28;20213;-81
2022/09/14 11:24:18;;;;;;;807.50;724.85;;;18.60;99.90;;;;;;5050170;28;20195;-79
2022/09/14 11:26:50;;;;;;;815.50;732.80;;;18.60;99.90;;;;;;5045693;28;20742;-79
2022/09/14 11:29:22;;;;;;;813.20;730.70;;;18.60;99.90;;;;;;5044965;28;20226;-78
2022/09/14 11:31:52;;;;;;;799.95;717.50;;;18.60;99.90;;;;;;5045216;28;20215;-78
2022/09/14 11:34:24;;;;;;;797.63;715.45;;;18.50;99.90;;;;;;5034279;28;20199;-78
2022/09/14 11:36:56;;;;;;;799.40;717.13;;;18.50;99.90;;;;;;5034982;28;20256;-78
2022/09/14 11:39:26;;;;;;;811.03;728.53;;;18.50;99.90;;;;;;5038402;28;20218;-79
2022/09/14 11:41:58;;;;;;;809.90;727.22;;;18.50;99.90;;;;;;5042511;28;20218;-79
2022/09/14 11:44:30;;;;;;;811.72;729.13;;;18.50;99.90;;;;;;5044225;28;20206;-79
2022/09/14 11:47:01;;;;;;;797.90;715.70;;;18.50;99.90;;;;;;5048873;28;20294;-81
2022/09/14 11:49:38;;;;;;;786.60;704.60;;;18.50;99.90;;;;;;5052063;28;20203;-82
2022/09/14 11:52:12;;;;;;;794.40;712.22;;;18.50;99.90;;;;;;5045108;28;20561;-81
2022/09/14 11:54:40;;;;;;;791.90;709.90;;;18.50;99.90;;;;;;5043117;28;20690;-78
2022/09/14 11:57:13;;;;;;;815.00;732.22;;;18.50;99.90;;;;;;5049249;28;20199;-80
2022/09/14 11:59:52;;;;;;;817.63;734.78;;;18.50;99.90;;;;;;5043765;28;20203;-79
2022/09/14 12:02:58;;;;;;;820.05;737.28;;;18.40;99.90;;;;;;5049467;28;20219;-79
2022/09/14 12:05:35;;;;;;;781.30;699.25;;;18.50;99.90;;;;;;5036563;28;20605;-79
2022/09/14 12:08:28;;;;;;;807.03;724.38;;;18.40;99.90;;;;;;5044140;28;20191;-78
2022/09/14 12:11:00;;;;;;;790.05;708.00;;;18.50;99.90;;;;;;5048214;28;20206;-79
2022/09/14 12:13:26;;;;;;;813.50;730.80;;;18.50;99.90;;;;;;5046164;28;20199;-80
2022/09/14 12:16:03;;;;;;;814.35;731.35;;;18.50;99.90;;;;;;5049873;28;20206;-79
2022/09/14 12:18:31;;;;;;;792.90;710.90;;;18.50;99.90;;;;;;5045606;28;20257;-78
2022/09/14 12:21:03;;;;;;;792.67;710.53;;;18.50;99.90;;;;;;5053482;28;20608;-81
2022/09/14 12:23:41;;;;;;;810.42;727.60;;;18.40;99.90;;;;;;5048651;28;20226;-78